createdAt,value
2023-11-05T00:00:52.226Z,4.90
2023-11-05T00:03:21.752Z,9.05
2023-11-05T00:05:49.825Z,8.93
2023-11-05T00:08:35.533Z,7.70
2023-11-05T00:11:04.124Z,6.93
2023-11-05T00:13:31.958Z,9.98
2023-11-05T00:16:14.404Z,7.12
2023-11-05T00:18:57.143Z,4.50
2023-11-05T00:27:01.490Z,8.60
2023-11-05T00:29:30.438Z,5.62
2023-11-05T00:32:00.891Z,6.20
2023-11-05T00:34:43.881Z,5.80
2023-11-05T00:37:13.104Z,5.37
2023-11-05T00:39:41.652Z,5.87
2023-11-05T00:42:17.123Z,6.40
2023-11-05T00:44:52.511Z,5.68
2023-11-05T00:47:20.262Z,6.28
2023-11-05T00:49:49.471Z,8.03
2023-11-05T00:52:17.355Z,6.32
2023-11-05T00:54:45.627Z,6.87
2023-11-05T00:57:15.287Z,4.95
2023-11-05T00:59:49.292Z,7.78
2023-11-05T01:02:26.259Z,5.73
2023-11-05T01:04:55.589Z,5.60
2023-11-05T01:07:25.504Z,6.10
2023-11-05T01:09:57.633Z,7.22
2023-11-05T01:12:30.152Z,5.97
2023-11-05T01:14:58.276Z,5.40
2023-11-05T01:17:26.063Z,5.12
2023-11-05T01:19:54.297Z,5.18
2023-11-05T01:22:24.569Z,4.55
2023-11-05T01:24:52.366Z,5.65
2023-11-05T01:27:19.899Z,5.90
2023-11-05T01:29:53.292Z,6.15
2023-11-05T01:32:22.718Z,6.90
2023-11-05T01:34:52.811Z,5.47
2023-11-05T01:37:48.965Z,5.70
2023-11-05T01:40:17.070Z,5.00
2023-11-05T01:42:55.671Z,8.43
2023-11-05T01:45:24.832Z,5.82
2023-11-05T01:47:54.494Z,7.60
2023-11-05T01:50:26.143Z,5.70
2023-11-05T01:52:57.074Z,7.20
2023-11-05T01:55:52.849Z,5.47
2023-11-05T01:58:22.810Z,4.62
2023-11-05T02:00:50.679Z,10.48
2023-11-05T02:03:19.004Z,4.82
2023-11-05T02:05:48.583Z,7.23
2023-11-05T02:08:16.617Z,3.65
2023-11-05T02:10:46.809Z,5.90
2023-11-05T02:13:16.240Z,4.80
2023-11-05T02:15:44.065Z,3.55
2023-11-05T02:18:13.745Z,4.47
2023-11-05T02:20:43.078Z,6.68
2023-11-05T02:23:18.115Z,5.22
2023-11-05T02:25:48.428Z,4.97
2023-11-05T02:28:19.022Z,4.70
2023-11-05T02:30:47.374Z,4.90
2023-11-05T02:33:44.504Z,6.75
2023-11-05T02:36:20.023Z,5.75
2023-11-05T02:38:50.111Z,4.50
2023-11-05T02:41:22.120Z,8.13
2023-11-05T02:43:51.520Z,7.87
2023-11-05T02:46:36.174Z,5.75
2023-11-05T02:49:04.411Z,8.88
2023-11-05T02:51:34.552Z,6.03
2023-11-05T02:54:07.209Z,4.82
2023-11-05T02:56:38.088Z,6.00
2023-11-05T02:59:07.759Z,4.25
2023-11-05T03:01:43.189Z,5.75
2023-11-05T03:04:11.044Z,9.25
2023-11-05T03:06:41.677Z,5.93
2023-11-05T03:09:18.053Z,6.77
2023-11-05T03:11:51.748Z,6.28
2023-11-05T03:14:22.395Z,7.25
2023-11-05T03:16:53.334Z,4.95
2023-11-05T03:19:22.336Z,3.92
2023-11-05T03:21:54.420Z,8.17
2023-11-05T03:24:25.608Z,3.37
2023-11-05T03:26:54.202Z,5.00
2023-11-05T03:29:22.305Z,4.82
2023-11-05T03:31:51.146Z,5.50
2023-11-05T03:34:35.216Z,4.37
2023-11-05T03:37:10.984Z,4.47
2023-11-05T03:39:45.006Z,5.28
2023-11-05T03:42:19.488Z,6.95
2023-11-05T03:44:48.256Z,4.90
2023-11-05T03:47:16.423Z,5.03
2023-11-05T03:49:45.172Z,4.65
2023-11-05T03:52:17.777Z,3.83
2023-11-05T03:54:46.473Z,6.53
2023-11-05T03:57:14.182Z,7.15
2023-11-05T03:59:42.311Z,6.20
2023-11-05T04:02:10.651Z,5.00
2023-11-05T04:04:39.826Z,5.53
2023-11-05T04:07:12.217Z,7.20
2023-11-05T04:09:46.625Z,6.00
2023-11-05T04:12:18.408Z,8.00
2023-11-05T04:14:50.379Z,7.78
2023-11-05T04:17:19.278Z,6.55
2023-11-05T04:19:49.754Z,8.77
2023-11-05T04:22:20.840Z,8.80
2023-11-05T04:24:51.758Z,7.30
2023-11-05T04:27:20.845Z,8.75
2023-11-05T04:29:52.159Z,7.05
2023-11-05T04:32:20.005Z,7.47
2023-11-05T04:34:49.153Z,8.30
2023-11-05T04:37:19.699Z,5.97
2023-11-05T04:39:50.448Z,9.18
2023-11-05T04:42:18.452Z,9.25
2023-11-05T04:44:53.934Z,8.02
2023-11-05T04:47:22.812Z,9.20
2023-11-05T04:49:52.379Z,8.17
2023-11-05T04:52:20.721Z,9.70
2023-11-05T04:54:51.432Z,6.28
2023-11-05T04:57:19.929Z,6.57
2023-11-05T04:59:52.146Z,10.25
2023-11-05T05:02:20.190Z,8.43
2023-11-05T05:04:52.618Z,13.18
2023-11-05T05:07:20.309Z,9.35
2023-11-05T05:09:48.112Z,8.30
2023-11-05T05:12:15.909Z,7.68
2023-11-05T05:14:45.417Z,7.53
2023-11-05T05:17:19.114Z,6.70
2023-11-05T05:19:48.055Z,6.70
2023-11-05T05:22:21.389Z,10.77
2023-11-05T05:25:06.669Z,7.75
2023-11-05T05:27:39.624Z,6.07
2023-11-05T05:30:08.204Z,5.45
2023-11-05T05:32:36.291Z,7.10
2023-11-05T05:35:11.868Z,6.87
2023-11-05T05:37:41.150Z,8.93
2023-11-05T05:40:10.457Z,7.57
2023-11-05T05:42:40.326Z,6.22
2023-11-05T05:45:12.183Z,7.97
2023-11-05T05:47:44.803Z,6.18
2023-11-05T05:50:13.226Z,7.40
2023-11-05T05:52:52.728Z,6.80
2023-11-05T05:55:21.240Z,12.37
2023-11-05T05:57:48.794Z,5.40
2023-11-05T06:00:17.190Z,7.82
2023-11-05T06:02:46.756Z,6.68
2023-11-05T06:05:26.317Z,5.53
2023-11-05T06:08:02.736Z,7.78
2023-11-05T06:10:30.831Z,5.43
2023-11-05T06:13:00.923Z,7.25
2023-11-05T06:15:32.702Z,7.12
2023-11-05T06:18:02.230Z,8.60
2023-11-05T06:20:33.775Z,4.97
2023-11-05T06:23:03.567Z,5.80
2023-11-05T06:25:32.685Z,4.85
2023-11-05T06:28:03.676Z,6.55
2023-11-05T06:30:35.934Z,5.80
2023-11-05T06:33:04.110Z,6.72
2023-11-05T06:35:32.360Z,5.20
2023-11-05T06:38:02.253Z,6.47
2023-11-05T06:40:34.814Z,5.57
2023-11-05T06:43:03.178Z,4.73
2023-11-05T06:45:31.259Z,5.57
2023-11-05T06:48:05.383Z,5.28
2023-11-05T06:50:33.751Z,10.57
2023-11-05T06:53:01.425Z,5.28
2023-11-05T06:55:29.733Z,4.00
2023-11-05T06:57:58.214Z,3.85
2023-11-05T07:00:26.103Z,5.87
2023-11-05T07:02:55.092Z,5.30
2023-11-05T07:05:23.702Z,4.37
2023-11-05T07:07:54.984Z,4.27
2023-11-05T07:10:29.026Z,5.62
2023-11-05T07:13:08.674Z,3.67
2023-11-05T07:15:48.447Z,6.28
2023-11-05T07:18:18.797Z,6.55
2023-11-05T07:20:48.511Z,4.53
2023-11-05T07:23:17.498Z,5.60
2023-11-05T07:25:45.703Z,6.35
2023-11-05T07:28:13.743Z,7.80
2023-11-05T07:30:42.254Z,6.03
2023-11-05T07:33:13.405Z,4.63
2023-11-05T07:35:43.226Z,7.25
2023-11-05T07:38:10.849Z,6.07
2023-11-05T07:40:41.434Z,7.15
2023-11-05T07:43:14.849Z,5.47
2023-11-05T07:45:43.354Z,4.77
2023-11-05T07:48:13.388Z,5.30
2023-11-05T07:50:42.952Z,5.05
2023-11-05T07:53:17.196Z,7.20
2023-11-05T07:55:46.234Z,6.35
2023-11-05T07:58:15.735Z,7.80
2023-11-05T08:00:47.654Z,5.10
2023-11-05T08:03:17.764Z,6.57
2023-11-05T08:05:49.542Z,7.22
2023-11-05T08:08:18.652Z,8.95
2023-11-05T08:10:46.488Z,6.83
2023-11-05T08:13:15.721Z,7.57
2023-11-05T08:15:44.913Z,6.37
2023-11-05T08:18:14.051Z,6.87
2023-11-05T08:20:45.063Z,5.65
2023-11-05T08:23:15.609Z,5.80
2023-11-05T08:25:45.149Z,6.43
2023-11-05T08:28:25.545Z,6.50
2023-11-05T08:30:56.276Z,5.97
2023-11-05T08:33:30.847Z,7.43
2023-11-05T08:36:03.451Z,7.83
2023-11-05T08:38:33.430Z,7.22
2023-11-05T08:41:02.420Z,5.47
2023-11-05T08:43:32.105Z,5.10
2023-11-05T08:46:00.139Z,6.70
2023-11-05T08:48:28.892Z,7.47
2023-11-05T08:50:56.942Z,7.95
2023-11-05T08:53:26.703Z,6.70
2023-11-05T08:55:59.992Z,8.15
2023-11-05T08:58:36.436Z,5.30
2023-11-05T09:01:04.386Z,7.97
2023-11-05T09:03:33.089Z,8.32
2023-11-05T09:06:03.533Z,8.43
2023-11-05T09:08:36.321Z,13.60
2023-11-05T09:11:04.544Z,13.20
2023-11-05T09:13:36.935Z,15.07
2023-11-05T09:16:08.293Z,13.95
2023-11-05T09:18:37.701Z,10.10
2023-11-05T09:21:06.402Z,9.52
2023-11-05T09:23:39.310Z,9.95
2023-11-05T09:26:11.419Z,8.43
2023-11-05T09:28:39.960Z,6.95
2023-11-05T09:31:09.500Z,5.97
2023-11-05T09:33:37.363Z,5.70
2023-11-05T09:38:49.328Z,6.03
2023-11-05T09:41:20.979Z,4.72
2023-11-05T09:43:53.603Z,7.47
2023-11-05T09:46:30.514Z,5.00
2023-11-05T09:48:58.441Z,5.47
2023-11-05T09:51:26.027Z,4.43
2023-11-05T09:53:55.239Z,6.32
2023-11-05T09:56:29.481Z,5.60
2023-11-05T09:58:57.781Z,5.82
2023-11-05T10:01:26.973Z,5.43
2023-11-05T10:03:56.881Z,5.70
2023-11-05T10:06:38.054Z,7.75
2023-11-05T10:09:09.198Z,6.85
2023-11-05T10:11:38.506Z,9.13
2023-11-05T10:14:06.997Z,6.82
2023-11-05T10:16:38.778Z,6.43
2023-11-05T10:19:09.544Z,6.22
2023-11-05T10:21:45.436Z,5.90
2023-11-05T10:24:15.070Z,8.52
2023-11-05T10:26:42.896Z,5.00
2023-11-05T10:29:13.994Z,8.63
2023-11-05T10:31:42.974Z,6.12
2023-11-05T10:34:12.734Z,10.02
2023-11-05T10:36:45.208Z,13.18
2023-11-05T10:39:14.432Z,15.90
2023-11-05T10:41:43.484Z,24.60
2023-11-05T10:44:11.598Z,19.90
2023-11-05T10:46:40.134Z,15.20
2023-11-05T10:49:11.230Z,14.55
2023-11-05T10:51:42.627Z,8.50
2023-11-05T10:54:10.239Z,7.07
2023-11-05T10:56:44.280Z,6.10
2023-11-05T10:59:13.673Z,10.45
2023-11-05T11:01:46.826Z,7.57
2023-11-05T11:04:19.856Z,7.65
2023-11-05T11:06:50.896Z,7.27
2023-11-05T11:09:19.383Z,7.40
2023-11-05T11:11:47.336Z,7.50
2023-11-05T11:14:17.209Z,8.75
2023-11-05T11:16:48.825Z,6.78
2023-11-05T11:19:19.078Z,8.80
2023-11-05T11:22:07.860Z,8.02
2023-11-05T11:24:49.811Z,8.15
2023-11-05T11:27:19.291Z,8.48
2023-11-05T11:29:50.912Z,8.10
2023-11-05T11:32:21.880Z,10.20
2023-11-05T11:34:50.389Z,6.07
2023-11-05T11:37:18.575Z,6.85
2023-11-05T11:39:48.416Z,8.18
2023-11-05T11:42:20.135Z,8.48
2023-11-05T11:44:48.150Z,6.27
2023-11-05T11:47:17.118Z,6.03
2023-11-05T11:49:47.106Z,8.80
2023-11-05T11:52:15.464Z,7.22
2023-11-05T11:54:46.046Z,7.43
2023-11-05T11:57:14.229Z,7.00
2023-11-05T11:59:42.979Z,6.15
2023-11-05T12:02:13.760Z,6.35
2023-11-05T12:04:41.702Z,7.60
2023-11-05T12:07:10.506Z,10.98
2023-11-05T12:09:42.190Z,7.03
2023-11-05T12:12:10.204Z,7.25
2023-11-05T12:14:44.281Z,6.57
2023-11-05T12:17:17.380Z,9.05
2023-11-05T12:19:47.459Z,6.28
2023-11-05T12:22:24.058Z,8.43
2023-11-05T12:24:51.911Z,34.03
2023-11-05T12:27:23.372Z,12.63
2023-11-05T12:29:53.546Z,10.98
2023-11-05T12:32:35.574Z,36.17
2023-11-05T12:35:11.032Z,23.73
2023-11-05T12:37:43.897Z,13.00
2023-11-05T12:40:58.567Z,10.65
2023-11-05T12:43:28.018Z,5.62
2023-11-05T12:45:57.576Z,5.60
2023-11-05T12:48:31.530Z,5.80
2023-11-05T12:51:05.945Z,6.78
2023-11-05T12:53:34.357Z,7.37
2023-11-05T12:56:07.016Z,6.53
2023-11-05T12:58:36.006Z,6.85
2023-11-05T13:06:55.985Z,4.60
2023-11-05T13:09:24.117Z,5.78
2023-11-05T13:11:51.871Z,3.85
2023-11-05T13:14:19.887Z,3.53
2023-11-05T13:16:48.047Z,4.53
2023-11-05T13:19:15.939Z,5.05
2023-11-05T13:21:46.645Z,4.50
2023-11-05T13:24:14.563Z,2.25
2023-11-05T13:26:42.269Z,2.50
2023-11-05T13:29:09.865Z,5.68
2023-11-05T13:31:38.601Z,2.60
2023-11-05T13:34:06.469Z,2.37
2023-11-05T13:36:34.300Z,4.07
2023-11-05T13:39:02.730Z,5.17
2023-11-05T13:41:30.270Z,3.03
2023-11-05T13:43:59.577Z,3.70
2023-11-05T13:46:27.694Z,4.43
2023-11-05T13:48:55.305Z,2.97
2023-11-05T13:51:23.235Z,4.90
2023-11-05T13:53:54.772Z,3.78
2023-11-05T13:56:22.356Z,2.20
2023-11-05T13:58:49.871Z,6.03
2023-11-05T14:01:19.214Z,5.85
2023-11-05T14:03:47.089Z,3.30
2023-11-05T14:06:15.134Z,3.53
2023-11-05T14:08:42.614Z,2.97
2023-11-05T14:11:10.479Z,2.05
2023-11-05T14:13:38.352Z,3.33
2023-11-05T14:16:06.638Z,4.50
2023-11-05T14:18:34.782Z,3.08
2023-11-05T14:24:12.239Z,4.22
2023-11-05T14:26:40.361Z,4.57
2023-11-05T14:29:08.194Z,4.37
2023-11-05T14:31:39.106Z,3.45
2023-11-05T14:34:07.925Z,4.30
2023-11-05T14:36:35.841Z,4.10
2023-11-05T14:39:06.180Z,5.80
2023-11-05T14:41:34.386Z,4.17
2023-11-05T14:44:02.442Z,6.50
2023-11-05T14:46:30.082Z,6.32
2023-11-05T14:48:58.290Z,4.60
2023-11-05T14:51:26.040Z,4.50
2023-11-05T14:53:53.823Z,4.80
2023-11-05T14:56:21.886Z,5.50
2023-11-05T14:58:49.764Z,4.05
2023-11-05T15:01:19.075Z,5.37
2023-11-05T15:03:47.825Z,4.32
2023-11-05T15:06:15.517Z,3.93
2023-11-05T15:08:43.324Z,4.72
2023-11-05T15:11:11.601Z,4.30
2023-11-05T15:13:39.164Z,4.35
2023-11-05T15:16:07.243Z,8.55
2023-11-05T15:18:38.916Z,14.47
2023-11-05T15:21:07.808Z,22.27
2023-11-05T15:23:36.247Z,17.73
2023-11-05T15:26:04.600Z,13.82
2023-11-05T15:28:32.191Z,11.27
2023-11-05T15:31:02.117Z,9.97
2023-11-05T15:33:39.496Z,5.47
2023-11-05T15:36:07.895Z,3.65
2023-11-05T15:38:36.111Z,5.65
2023-11-05T15:41:04.580Z,4.72
2023-11-05T15:43:33.637Z,5.23
2023-11-05T15:46:01.632Z,5.05
2023-11-05T15:48:29.441Z,4.28
2023-11-05T15:50:57.725Z,3.72
2023-11-05T15:53:27.076Z,6.37
2023-11-05T15:55:54.965Z,4.57
2023-11-05T15:58:23.121Z,8.88
2023-11-05T16:00:51.028Z,6.40
2023-11-05T16:03:19.842Z,6.50
2023-11-05T16:05:47.860Z,5.25
2023-11-05T16:08:15.405Z,4.37
2023-11-05T16:10:43.883Z,4.05
2023-11-05T16:13:11.690Z,3.90
2023-11-05T16:15:39.634Z,3.60
2023-11-05T16:18:08.079Z,5.85
2023-11-05T16:20:35.679Z,6.10
2023-11-05T16:23:03.774Z,5.47
2023-11-05T16:25:31.691Z,2.75
2023-11-05T16:27:59.333Z,4.40
2023-11-05T16:30:27.284Z,3.47
2023-11-05T16:32:55.457Z,2.73
2023-11-05T16:35:25.783Z,3.00
2023-11-05T16:37:53.709Z,5.32
2023-11-05T16:40:23.786Z,4.75
2023-11-05T16:42:51.551Z,3.95
2023-11-05T16:45:19.531Z,2.50
2023-11-05T16:47:48.612Z,2.33
2023-11-05T16:50:16.796Z,1.77
2023-11-05T16:52:45.793Z,4.95
2023-11-05T16:55:16.463Z,4.70
2023-11-05T16:57:45.359Z,5.20
2023-11-05T17:00:13.923Z,3.90
2023-11-05T17:02:41.968Z,3.47
2023-11-05T17:05:13.591Z,1.98
2023-11-05T17:07:42.517Z,3.17
2023-11-05T17:10:12.079Z,2.10
2023-11-05T17:12:40.588Z,3.12
2023-11-05T17:15:09.614Z,2.17
2023-11-05T17:17:37.916Z,2.85
2023-11-05T17:20:07.219Z,2.37
2023-11-05T17:22:35.551Z,1.93
2023-11-05T17:25:07.129Z,3.53
2023-11-05T17:27:35.769Z,3.70
2023-11-05T17:30:03.762Z,10.38
2023-11-05T17:32:31.647Z,3.40
2023-11-05T17:34:59.850Z,2.33
2023-11-05T17:37:27.751Z,2.60
2023-11-05T17:39:55.609Z,2.58
2023-11-05T17:42:23.501Z,3.25
2023-11-05T17:44:51.295Z,2.80
2023-11-05T17:47:19.116Z,4.43
2023-11-05T17:49:47.312Z,2.78
2023-11-05T17:52:15.803Z,4.40
2023-11-05T17:54:43.595Z,2.53
2023-11-05T17:57:12.724Z,2.55
2023-11-05T17:59:40.817Z,5.20
2023-11-05T18:02:08.638Z,2.08
2023-11-05T18:04:37.765Z,2.08
2023-11-05T18:07:05.469Z,5.70
2023-11-05T18:09:33.209Z,3.45
2023-11-05T18:12:04.335Z,2.27
2023-11-05T18:14:31.837Z,2.60
2023-11-05T18:16:59.467Z,3.28
2023-11-05T18:19:27.351Z,2.55
2023-11-05T18:21:55.204Z,3.20
2023-11-05T18:24:27.052Z,4.40
2023-11-05T18:26:55.313Z,2.25
2023-11-05T18:29:23.886Z,5.37
2023-11-05T18:31:51.696Z,2.95
2023-11-05T18:34:19.794Z,2.42
2023-11-05T18:36:47.541Z,3.07
2023-11-05T18:39:15.315Z,3.47
2023-11-05T18:41:44.346Z,4.30
2023-11-05T18:44:12.627Z,4.72
2023-11-05T18:46:41.765Z,3.47
2023-11-05T18:49:10.271Z,4.93
2023-11-05T18:51:38.189Z,2.40
2023-11-05T18:54:05.823Z,1.75
2023-11-05T18:56:34.199Z,2.67
2023-11-05T18:59:02.035Z,2.72
2023-11-05T19:01:29.691Z,6.63
2023-11-05T19:03:58.025Z,2.53
2023-11-05T19:06:25.904Z,2.97
2023-11-05T19:08:54.546Z,3.15
2023-11-05T19:11:22.590Z,3.45
2023-11-05T19:13:56.661Z,2.13
2023-11-05T19:16:30.260Z,3.30
2023-11-05T19:19:00.206Z,4.80
2023-11-05T19:21:28.243Z,2.33
2023-11-05T19:23:56.038Z,3.12
2023-11-05T19:26:28.909Z,2.07
2023-11-05T19:28:57.056Z,2.10
2023-11-05T19:31:24.855Z,4.20
2023-11-05T19:33:52.997Z,3.33
2023-11-05T19:36:24.885Z,3.97
2023-11-05T19:38:53.649Z,3.37
2023-11-05T19:41:31.841Z,2.10
2023-11-05T19:44:00.494Z,4.78
2023-11-05T19:46:28.609Z,2.75
2023-11-05T19:48:56.776Z,1.50
2023-11-05T19:51:24.739Z,2.27
2023-11-05T19:53:52.873Z,3.60
2023-11-05T19:56:26.030Z,4.12
2023-11-05T19:58:57.497Z,3.25
2023-11-05T20:01:25.608Z,5.80
2023-11-05T20:03:55.872Z,2.13
2023-11-05T20:06:24.178Z,6.03
2023-11-05T20:08:52.274Z,9.10
2023-11-05T20:11:20.835Z,2.40
2023-11-05T20:13:50.107Z,2.95
2023-11-05T20:16:18.285Z,2.90
2023-11-05T20:18:47.163Z,3.03
2023-11-05T20:21:15.029Z,4.93
2023-11-05T20:23:43.061Z,2.53
2023-11-05T20:26:12.929Z,2.05
2023-11-05T20:28:42.136Z,2.07
2023-11-05T20:31:10.721Z,5.53
2023-11-05T20:33:39.652Z,3.08
2023-11-05T20:36:07.837Z,3.70
2023-11-05T20:38:35.574Z,10.70
2023-11-05T20:41:03.941Z,2.50
2023-11-05T20:43:31.776Z,3.10
2023-11-05T20:46:01.260Z,2.72
2023-11-05T20:48:29.261Z,4.00
2023-11-05T20:50:57.108Z,4.18
2023-11-05T20:53:25.029Z,1.90
2023-11-05T20:55:52.995Z,3.58
2023-11-05T20:58:20.697Z,5.15
2023-11-05T21:00:48.547Z,2.15
2023-11-05T21:03:16.534Z,2.30
2023-11-05T21:05:44.529Z,7.63
2023-11-05T21:08:12.448Z,3.08
2023-11-05T21:10:48.742Z,5.10
2023-11-05T21:13:19.941Z,2.47
2023-11-05T21:15:48.088Z,5.55
2023-11-05T21:18:15.798Z,2.90
2023-11-05T21:20:43.925Z,4.28
2023-11-05T21:23:11.771Z,7.07
2023-11-05T21:25:40.706Z,2.17
2023-11-05T21:28:08.343Z,3.05
2023-11-05T21:30:36.475Z,2.70
2023-11-05T21:33:04.491Z,3.10
2023-11-05T21:35:32.770Z,3.75
2023-11-05T21:38:00.685Z,3.33
2023-11-05T21:40:28.675Z,3.08
2023-11-05T21:42:57.535Z,3.30
2023-11-05T21:45:29.392Z,2.20
2023-11-05T21:47:57.223Z,2.25
2023-11-05T21:50:27.084Z,4.80
2023-11-05T21:52:55.069Z,3.12
2023-11-05T21:55:22.836Z,2.50
2023-11-05T21:57:50.712Z,3.55
2023-11-05T22:00:18.508Z,5.07
2023-11-05T22:02:46.668Z,4.53
2023-11-05T22:05:14.809Z,4.47
2023-11-05T22:07:42.623Z,4.07
2023-11-05T22:10:11.336Z,3.97
2023-11-05T22:12:39.056Z,4.87
2023-11-05T22:15:10.280Z,3.75
2023-11-05T22:17:38.049Z,5.65
2023-11-05T22:20:07.490Z,2.93
2023-11-05T22:22:35.728Z,3.35
2023-11-05T22:25:04.661Z,3.17
2023-11-05T22:27:32.403Z,3.90
2023-11-05T22:30:00.510Z,2.37
2023-11-05T22:32:28.376Z,2.70
2023-11-05T22:34:56.266Z,5.43
2023-11-05T22:37:24.434Z,4.90
2023-11-05T22:39:52.022Z,6.45
2023-11-05T22:42:20.352Z,4.05
2023-11-05T22:44:48.372Z,5.47
2023-11-05T22:47:15.948Z,4.07
2023-11-05T22:49:43.739Z,5.65
2023-11-05T22:52:11.857Z,7.18
2023-11-05T22:54:41.379Z,3.50
2023-11-05T22:57:12.333Z,3.53
2023-11-05T22:59:41.452Z,5.37
2023-11-05T23:02:09.074Z,6.53
2023-11-05T23:04:37.227Z,2.87
2023-11-05T23:07:05.218Z,4.78
2023-11-05T23:09:33.224Z,3.50
2023-11-05T23:12:01.232Z,4.28
2023-11-05T23:14:28.950Z,2.78
2023-11-05T23:16:56.653Z,3.58
2023-11-05T23:19:24.656Z,3.67
2023-11-05T23:21:52.820Z,5.23
2023-11-05T23:24:21.340Z,6.97
2023-11-05T23:26:49.497Z,5.82
2023-11-05T23:29:18.098Z,4.97
2023-11-05T23:31:45.924Z,4.18
2023-11-05T23:34:13.739Z,4.33
2023-11-05T23:36:41.513Z,7.22
2023-11-05T23:39:10.851Z,5.72
2023-11-05T23:41:39.123Z,3.03
2023-11-05T23:44:06.925Z,4.87
2023-11-05T23:46:34.670Z,3.70
2023-11-05T23:49:02.743Z,4.28
2023-11-05T23:51:30.452Z,5.53
2023-11-05T23:53:57.975Z,5.00
2023-11-05T23:56:26.021Z,3.75
2023-11-05T23:58:53.880Z,5.83
